Philadelphia, Pennsylvania
Traffic Map
Current Weather Conditions
Philadelphia, Pennsylvania
Overcast
Overcast
39°
Feels Like: 33°
Wind Chill: 33° Ceiling: 10000
Heat Index: 39° Visibility: 10mi
Dew Point: 31° Wind: 8mph
Humidity: 73% Direction: 50° (NE)
Pressure: 30.21in Gusts: 0mph
Raw Report DataKPHL 180254Z 05007KT 10SM BKN100 OVC160 04/M01 A3021 RMK AO2 SLP229 T00391006 56012 $
Traffic Incident Summary
Active as of:
Severity:
Category:
InformationThere was an issue retrieving the traffic information for this location. Please try a different location or try again shortly.
Advertisements